Terminal Aerodrome Forecast
Issued by NWS

Home | Current Version | Previous Version | Text Only | Print | Product List | Glossary On
Versions: 1 2 3 4 5 6 7 8 9 10 11 12 13 14 15 16 17 18 19 20
000
FTUS43 KIND 221408 AAA
TAFLAF
TAF AMD
KLAF 221408Z 2214/2312 27006KT P6SM SCT020 BKN060
     FM221430 26010KT 6SM -SHRA VCTS SCT020CB BKN050
     FM221730 24010KT P6SM FEW040 BKN120
     FM222000 25010KT P6SM VCTS BKN050CB BKN100
     FM230000 27005KT P6SM VCTS SCT050CB BKN130
     FM230600 26005KT P6SM BKN080
     FM230900 31004KT P6SM BKN015
     FM231000 31004KT P6SM BKN020=

USA.gov is the U.S. government's official web portal to all federal, state and local government web resources and services.